sensor_id;sensor_type;location;lat;lon;timestamp;pressure;altitude;pressure_sealevel;temperature;humidity
19150;BME280;9707;49.158;8.632;2023-09-30T00:00:34;101240.97;;;25.43;41.64
19150;BME280;9707;49.158;8.632;2023-09-30T00:02:59;101244.56;;;25.43;42.08
19150;BME280;9707;49.158;8.632;2023-09-30T00:05:26;101241.81;;;25.43;41.87
19150;BME280;9707;49.158;8.632;2023-09-30T00:07:51;101238.25;;;25.43;41.82
19150;BME280;9707;49.158;8.632;2023-09-30T00:10:16;101235.53;;;25.43;41.76
19150;BME280;9707;49.158;8.632;2023-09-30T00:12:41;101237.25;;;25.44;41.79
19150;BME280;9707;49.158;8.632;2023-09-30T00:15:07;101235.53;;;25.43;42.00
19150;BME280;9707;49.158;8.632;2023-09-30T00:17:32;101248.16;;;25.44;41.72
19150;BME280;9707;49.158;8.632;2023-09-30T00:19:57;101247.28;;;25.43;41.87
19150;BME280;9707;49.158;8.632;2023-09-30T00:22:24;101248.28;;;25.42;41.85
19150;BME280;9707;49.158;8.632;2023-09-30T00:24:49;101250.13;;;25.42;41.65
19150;BME280;9707;49.158;8.632;2023-09-30T00:27:14;101244.69;;;25.42;42.15
19150;BME280;9707;49.158;8.632;2023-09-30T00:29:40;101251.16;;;25.41;41.80
19150;BME280;9707;49.158;8.632;2023-09-30T00:32:05;101253.03;;;25.40;42.07
19150;BME280;9707;49.158;8.632;2023-09-30T00:34:37;101264.78;;;25.41;42.04
19150;BME280;9707;49.158;8.632;2023-09-30T00:37:02;101258.47;;;25.40;41.95
19150;BME280;9707;49.158;8.632;2023-09-30T00:39:28;101262.06;;;25.41;41.96
19150;BME280;9707;49.158;8.632;2023-09-30T00:41:57;101268.50;;;25.40;42.11
19150;BME280;9707;49.158;8.632;2023-09-30T00:44:24;101270.25;;;25.41;42.19
19150;BME280;9707;49.158;8.632;2023-09-30T00:46:49;101259.31;;;25.41;41.86
19150;BME280;9707;49.158;8.632;2023-09-30T00:49:15;101262.19;;;25.39;42.10
19150;BME280;9707;49.158;8.632;2023-09-30T00:51:42;101272.25;;;25.39;42.20
19150;BME280;9707;49.158;8.632;2023-09-30T00:54:08;101277.69;;;25.39;42.23
19150;BME280;9707;49.158;8.632;2023-09-30T00:56:35;101275.97;;;25.38;42.39
19150;BME280;9707;49.158;8.632;2023-09-30T00:59:06;101275.97;;;25.38;42.08
19150;BME280;9707;49.158;8.632;2023-09-30T01:01:32;101268.75;;;25.37;42.35
19150;BME280;9707;49.158;8.632;2023-09-30T01:03:57;101259.75;;;25.36;42.21
19150;BME280;9707;49.158;8.632;2023-09-30T01:06:23;101266.91;;;25.37;42.17
19150;BME280;9707;49.158;8.632;2023-09-30T01:08:49;101263.59;;;25.34;42.14
19150;BME280;9707;49.158;8.632;2023-09-30T01:11:14;101269.06;;;25.34;42.05
19150;BME280;9707;49.158;8.632;2023-09-30T01:13:40;101269.06;;;25.34;42.08
19150;BME280;9707;49.158;8.632;2023-09-30T01:16:07;101270.91;;;25.33;42.10
19150;BME280;9707;49.158;8.632;2023-09-30T01:18:35;101270.91;;;25.33;41.70
19150;BME280;9707;49.158;8.632;2023-09-30T01:21:03;101269.19;;;25.32;41.83
19150;BME280;9707;49.158;8.632;2023-09-30T01:23:30;101269.31;;;25.31;42.07
19150;BME280;9707;49.158;8.632;2023-09-30T01:25:55;101286.66;;;25.30;41.77
19150;BME280;9707;49.158;8.632;2023-09-30T01:28:21;101281.34;;;25.28;42.04
19150;BME280;9707;49.158;8.632;2023-09-30T01:30:46;101281.34;;;25.28;42.54
19150;BME280;9707;49.158;8.632;2023-09-30T01:33:11;101276.88;;;25.27;42.73
19150;BME280;9707;49.158;8.632;2023-09-30T01:35:37;101266.97;;;25.26;42.32
19150;BME280;9707;49.158;8.632;2023-09-30T01:38:02;101263.38;;;25.26;42.13
19150;BME280;9707;49.158;8.632;2023-09-30T01:40:27;101264.34;;;25.25;42.25
19150;BME280;9707;49.158;8.632;2023-09-30T01:42:53;101265.25;;;25.25;42.05
19150;BME280;9707;49.158;8.632;2023-09-30T01:45:18;101263.38;;;25.26;41.83
19150;BME280;9707;49.158;8.632;2023-09-30T01:47:44;101279.81;;;25.24;42.16
19150;BME280;9707;49.158;8.632;2023-09-30T01:50:09;101279.09;;;25.22;42.09
19150;BME280;9707;49.158;8.632;2023-09-30T01:52:35;101280.97;;;25.22;42.34
19150;BME280;9707;49.158;8.632;2023-09-30T01:55:00;101287.41;;;25.21;41.95
19150;BME280;9707;49.158;8.632;2023-09-30T01:57:26;101283.97;;;25.19;41.89
19150;BME280;9707;49.158;8.632;2023-09-30T01:59:51;101292.16;;;25.19;41.79
19150;BME280;9707;49.158;8.632;2023-09-30T02:02:17;101289.41;;;25.19;42.31
19150;BME280;9707;49.158;8.632;2023-09-30T02:04:42;101287.69;;;25.18;42.36
19150;BME280;9707;49.158;8.632;2023-09-30T02:07:08;101286.09;;;25.15;42.17
19150;BME280;9707;49.158;8.632;2023-09-30T02:09:34;101282.50;;;25.15;42.18
19150;BME280;9707;49.158;8.632;2023-09-30T02:11:59;101285.22;;;25.15;42.70
19150;BME280;9707;49.158;8.632;2023-09-30T02:14:25;101280.75;;;25.14;42.08
19150;BME280;9707;49.158;8.632;2023-09-30T02:16:50;101278.03;;;25.14;42.21
19150;BME280;9707;49.158;8.632;2023-09-30T02:19:16;101281.75;;;25.13;42.60
19150;BME280;9707;49.158;8.632;2023-09-30T02:21:41;101286.34;;;25.12;42.25
19150;BME280;9707;49.158;8.632;2023-09-30T02:24:07;101282.72;;;25.12;42.32
19150;BME280;9707;49.158;8.632;2023-09-30T02:26:32;101290.91;;;25.12;42.26
19150;BME280;9707;49.158;8.632;2023-09-30T02:28:58;101290.06;;;25.11;42.28
19150;BME280;9707;49.158;8.632;2023-09-30T02:31:24;101295.53;;;25.11;42.24
19150;BME280;9707;49.158;8.632;2023-09-30T02:33:49;101287.47;;;25.10;42.34
19150;BME280;9707;49.158;8.632;2023-09-30T02:36:15;101288.34;;;25.10;42.10
19150;BME280;9707;49.158;8.632;2023-09-30T02:38:41;101295.75;;;25.08;42.34
19150;BME280;9707;49.158;8.632;2023-09-30T02:41:06;101293.91;;;25.09;42.41
19150;BME280;9707;49.158;8.632;2023-09-30T02:43:32;101297.78;;;25.06;43.00
19150;BME280;9707;49.158;8.632;2023-09-30T02:45:58;101296.88;;;25.06;42.47
19150;BME280;9707;49.158;8.632;2023-09-30T02:48:23;101304.06;;;25.07;42.57
19150;BME280;9707;49.158;8.632;2023-09-30T02:50:48;101302.34;;;25.06;42.45
19150;BME280;9707;49.158;8.632;2023-09-30T02:53:14;101307.81;;;25.06;42.43
19150;BME280;9707;49.158;8.632;2023-09-30T02:55:40;101307.81;;;25.06;42.50
19150;BME280;9707;49.158;8.632;2023-09-30T02:58:09;101300.63;;;25.05;42.06
19150;BME280;9707;49.158;8.632;2023-09-30T03:00:35;101283.66;;;25.01;42.05
19150;BME280;9707;49.158;8.632;2023-09-30T03:03:03;101293.69;;;25.01;42.18
19150;BME280;9707;49.158;8.632;2023-09-30T03:05:29;101294.81;;;24.98;42.31
19150;BME280;9707;49.158;8.632;2023-09-30T03:07:57;101298.41;;;24.99;42.53
19150;BME280;9707;49.158;8.632;2023-09-30T03:10:22;101302.88;;;25.00;42.33
19150;BME280;9707;49.158;8.632;2023-09-30T03:12:54;101301.16;;;24.99;42.86
19150;BME280;9707;49.158;8.632;2023-09-30T03:15:20;101307.59;;;24.98;42.80
19150;BME280;9707;49.158;8.632;2023-09-30T03:17:45;101315.78;;;24.98;42.13
19150;BME280;9707;49.158;8.632;2023-09-30T03:20:11;101319.47;;;24.97;42.23
19150;BME280;9707;49.158;8.632;2023-09-30T03:22:43;101308.56;;;24.97;42.27
19150;BME280;9707;49.158;8.632;2023-09-30T03:25:12;101305.84;;;24.97;42.34
19150;BME280;9707;49.158;8.632;2023-09-30T03:27:40;101295.94;;;24.96;42.80
19150;BME280;9707;49.158;8.632;2023-09-30T03:30:07;101294.22;;;24.95;42.76
19150;BME280;9707;49.158;8.632;2023-09-30T03:32:33;101281.31;;;24.97;42.67
19150;BME280;9707;49.158;8.632;2023-09-30T03:35:02;101293.22;;;24.96;42.66
19150;BME280;9707;49.158;8.632;2023-09-30T03:37:31;101295.94;;;24.96;42.20
19150;BME280;9707;49.158;8.632;2023-09-30T03:39:57;101302.38;;;24.95;42.33
19150;BME280;9707;49.158;8.632;2023-09-30T03:42:22;101290.59;;;24.94;42.29
19150;BME280;9707;49.158;8.632;2023-09-30T03:44:48;101308.84;;;24.94;42.44
19150;BME280;9707;49.158;8.632;2023-09-30T03:47:17;101312.56;;;24.93;42.32
19150;BME280;9707;49.158;8.632;2023-09-30T03:49:42;101301.66;;;24.93;42.48
19150;BME280;9707;49.158;8.632;2023-09-30T03:52:08;101310.81;;;24.92;42.75
19150;BME280;9707;49.158;8.632;2023-09-30T03:54:34;101313.69;;;24.90;42.48
19150;BME280;9707;49.158;8.632;2023-09-30T03:57:00;101321.00;;;24.90;42.32
19150;BME280;9707;49.158;8.632;2023-09-30T03:59:25;101318.25;;;24.90;42.38
19150;BME280;9707;49.158;8.632;2023-09-30T04:01:51;101322.00;;;24.89;42.62
19150;BME280;9707;49.158;8.632;2023-09-30T04:04:19;101322.00;;;24.89;42.50
19150;BME280;9707;49.158;8.632;2023-09-30T04:06:44;101330.16;;;24.89;42.39
19150;BME280;9707;49.158;8.632;2023-09-30T04:09:11;101331.16;;;24.88;42.18
19150;BME280;9707;49.158;8.632;2023-09-30T04:11:37;101325.84;;;24.86;42.71
19150;BME280;9707;49.158;8.632;2023-09-30T04:14:04;101324.97;;;24.86;43.20
19150;BME280;9707;49.158;8.632;2023-09-30T04:16:30;101324.97;;;24.86;42.64
19150;BME280;9707;49.158;8.632;2023-09-30T04:18:56;101327.69;;;24.86;42.64
19150;BME280;9707;49.158;8.632;2023-09-30T04:21:21;101321.38;;;24.85;42.41
19150;BME280;9707;49.158;8.632;2023-09-30T04:23:46;101337.75;;;24.85;42.45
19150;BME280;9707;49.158;8.632;2023-09-30T04:26:12;101340.59;;;24.84;42.44
19150;BME280;9707;49.158;8.632;2023-09-30T04:28:37;101346.03;;;24.84;42.41
19150;BME280;9707;49.158;8.632;2023-09-30T04:31:03;101339.84;;;24.82;42.48
19150;BME280;9707;49.158;8.632;2023-09-30T04:33:30;101348.03;;;24.82;42.32
19150;BME280;9707;49.158;8.632;2023-09-30T04:35:55;101341.81;;;24.80;42.58
19150;BME280;9707;49.158;8.632;2023-09-30T04:38:20;101333.66;;;24.80;42.06
19150;BME280;9707;49.158;8.632;2023-09-30T04:40:46;101347.41;;;24.78;42.42
19150;BME280;9707;49.158;8.632;2023-09-30T04:43:13;101352.00;;;24.78;42.09
19150;BME280;9707;49.158;8.632;2023-09-30T04:45:39;101342.94;;;24.77;43.01
19150;BME280;9707;49.158;8.632;2023-09-30T04:48:05;101345.78;;;24.76;43.19
19150;BME280;9707;49.158;8.632;2023-09-30T04:50:31;101343.06;;;24.76;42.54
19150;BME280;9707;49.158;8.632;2023-09-30T04:52:56;101337.75;;;24.74;42.27
19150;BME280;9707;49.158;8.632;2023-09-30T04:55:23;101334.16;;;24.74;42.43
19150;BME280;9707;49.158;8.632;2023-09-30T04:57:49;101334.16;;;24.74;42.16
19150;BME280;9707;49.158;8.632;2023-09-30T05:00:16;101329.84;;;24.71;42.19
19150;BME280;9707;49.158;8.632;2023-09-30T05:02:49;101332.44;;;24.73;41.90
19150;BME280;9707;49.158;8.632;2023-09-30T05:05:15;101338.13;;;24.70;42.10
19150;BME280;9707;49.158;8.632;2023-09-30T05:07:40;101346.41;;;24.68;41.79
19150;BME280;9707;49.158;8.632;2023-09-30T05:10:07;101347.41;;;24.67;41.94
19150;BME280;9707;49.158;8.632;2023-09-30T05:12:36;101342.09;;;24.66;42.18
19150;BME280;9707;49.158;8.632;2023-09-30T05:15:02;101345.81;;;24.65;41.90
19150;BME280;9707;49.158;8.632;2023-09-30T05:17:28;101351.25;;;24.65;42.12
19150;BME280;9707;49.158;8.632;2023-09-30T05:19:55;101343.34;;;24.62;42.21
19150;BME280;9707;49.158;8.632;2023-09-30T05:22:21;101344.31;;;24.61;42.23
19150;BME280;9707;49.158;8.632;2023-09-30T05:24:50;101338.88;;;24.61;42.04
19150;BME280;9707;49.158;8.632;2023-09-30T05:27:15;101350.78;;;24.60;41.63
19150;BME280;9707;49.158;8.632;2023-09-30T05:29:42;101355.38;;;24.59;41.65
19150;BME280;9707;49.158;8.632;2023-09-30T05:32:07;101351.84;;;24.57;41.74
19150;BME280;9707;49.158;8.632;2023-09-30T05:34:33;101359.19;;;24.57;41.41
19150;BME280;9707;49.158;8.632;2023-09-30T05:36:59;101363.75;;;24.56;42.17
19150;BME280;9707;49.158;8.632;2023-09-30T05:39:24;101358.41;;;24.55;42.17
19150;BME280;9707;49.158;8.632;2023-09-30T05:41:50;101342.94;;;24.55;42.32
19150;BME280;9707;49.158;8.632;2023-09-30T05:44:16;101351.25;;;24.54;42.01
19150;BME280;9707;49.158;8.632;2023-09-30T05:46:41;101375.75;;;24.54;41.57
19150;BME280;9707;49.158;8.632;2023-09-30T05:49:10;101378.72;;;24.51;41.76
19150;BME280;9707;49.158;8.632;2023-09-30T05:51:39;101395.06;;;24.51;41.67
19150;BME280;9707;49.158;8.632;2023-09-30T05:54:06;101396.94;;;24.50;42.01
19150;BME280;9707;49.158;8.632;2023-09-30T05:56:33;101398.91;;;24.48;41.73
19150;BME280;9707;49.158;8.632;2023-09-30T05:58:58;101405.22;;;24.49;42.10
19150;BME280;9707;49.158;8.632;2023-09-30T06:01:24;101389.00;;;24.47;42.22
19150;BME280;9707;49.158;8.632;2023-09-30T06:03:49;101397.16;;;24.47;41.90
19150;BME280;9707;49.158;8.632;2023-09-30T06:06:15;101403.50;;;24.48;41.87
19150;BME280;9707;49.158;8.632;2023-09-30T06:08:42;101392.72;;;24.46;41.96
19150;BME280;9707;49.158;8.632;2023-09-30T06:11:20;101406.34;;;24.46;41.38
19150;BME280;9707;49.158;8.632;2023-09-30T06:13:52;101400.00;;;24.46;41.49
19150;BME280;9707;49.158;8.632;2023-09-30T06:16:20;101409.19;;;24.45;41.80
19150;BME280;9707;49.158;8.632;2023-09-30T06:18:46;101399.28;;;24.44;42.00
19150;BME280;9707;49.158;8.632;2023-09-30T06:21:13;101402.88;;;24.44;41.96
19150;BME280;9707;49.158;8.632;2023-09-30T06:23:39;101394.84;;;24.43;41.71
19150;BME280;9707;49.158;8.632;2023-09-30T06:26:05;101409.44;;;24.42;41.95
19150;BME280;9707;49.158;8.632;2023-09-30T06:28:30;101409.44;;;24.42;42.11
19150;BME280;9707;49.158;8.632;2023-09-30T06:30:57;101412.16;;;24.42;42.15
19150;BME280;9707;49.158;8.632;2023-09-30T06:33:22;101412.16;;;24.42;42.07
19150;BME280;9707;49.158;8.632;2023-09-30T06:35:48;101409.69;;;24.39;41.91
19150;BME280;9707;49.158;8.632;2023-09-30T06:38:18;101418.56;;;24.41;42.23
19150;BME280;9707;49.158;8.632;2023-09-30T06:40:44;101420.47;;;24.40;42.16
19150;BME280;9707;49.158;8.632;2023-09-30T06:43:10;101422.41;;;24.38;42.45
19150;BME280;9707;49.158;8.632;2023-09-30T06:45:36;101414.25;;;24.38;42.46
19150;BME280;9707;49.158;8.632;2023-09-30T06:48:06;101416.13;;;24.38;42.36
19150;BME280;9707;49.158;8.632;2023-09-30T06:50:31;101417.13;;;24.37;42.57
19150;BME280;9707;49.158;8.632;2023-09-30T06:52:57;101417.13;;;24.37;42.38
19150;BME280;9707;49.158;8.632;2023-09-30T06:55:22;101421.56;;;24.38;42.60
19150;BME280;9707;49.158;8.632;2023-09-30T06:57:47;101427.13;;;24.36;42.76
19150;BME280;9707;49.158;8.632;2023-09-30T07:00:13;101439.75;;;24.37;42.67
19150;BME280;9707;49.158;8.632;2023-09-30T07:02:39;101427.03;;;24.38;42.70
19150;BME280;9707;49.158;8.632;2023-09-30T07:05:12;101427.13;;;24.36;42.92
19150;BME280;9707;49.158;8.632;2023-09-30T07:07:38;101437.16;;;24.36;42.96
19150;BME280;9707;49.158;8.632;2023-09-30T07:10:08;101441.63;;;24.37;43.10
19150;BME280;9707;49.158;8.632;2023-09-30T07:12:34;101440.63;;;24.38;42.93
19150;BME280;9707;49.158;8.632;2023-09-30T07:15:04;101435.19;;;24.38;42.95
19150;BME280;9707;49.158;8.632;2023-09-30T07:17:29;101430.59;;;24.38;43.00
19150;BME280;9707;49.158;8.632;2023-09-30T07:19:55;101421.56;;;24.38;43.07
19150;BME280;9707;49.158;8.632;2023-09-30T07:22:20;101425.13;;;24.38;43.03
19150;BME280;9707;49.158;8.632;2023-09-30T07:24:46;101436.03;;;24.38;43.52
19150;BME280;9707;49.158;8.632;2023-09-30T07:27:11;101439.53;;;24.40;43.33
19150;BME280;9707;49.158;8.632;2023-09-30T07:29:36;101442.34;;;24.39;43.65
19150;BME280;9707;49.158;8.632;2023-09-30T07:32:02;101456.72;;;24.41;43.42
19150;BME280;9707;49.158;8.632;2023-09-30T07:34:27;101473.94;;;24.41;43.21
19150;BME280;9707;49.158;8.632;2023-09-30T07:36:53;101467.59;;;24.41;43.25
19150;BME280;9707;49.158;8.632;2023-09-30T07:39:18;101464.88;;;24.41;43.33
19150;BME280;9707;49.158;8.632;2023-09-30T07:41:43;101459.44;;;24.41;43.18
19150;BME280;9707;49.158;8.632;2023-09-30T07:44:09;101463.94;;;24.42;43.20
19150;BME280;9707;49.158;8.632;2023-09-30T07:46:35;101459.31;;;24.42;42.84
19150;BME280;9707;49.158;8.632;2023-09-30T07:49:00;101449.31;;;24.43;42.95
19150;BME280;9707;49.158;8.632;2023-09-30T07:51:26;101437.53;;;24.42;43.25
19150;BME280;9707;49.158;8.632;2023-09-30T07:53:51;101442.75;;;24.45;43.28
19150;BME280;9707;49.158;8.632;2023-09-30T07:56:17;101449.03;;;24.46;43.01
19150;BME280;9707;49.158;8.632;2023-09-30T07:58:42;101448.09;;;24.47;43.30
19150;BME280;9707;49.158;8.632;2023-09-30T08:01:08;101454.50;;;24.46;43.06
19150;BME280;9707;49.158;8.632;2023-09-30T08:03:33;101462.56;;;24.47;43.26
19150;BME280;9707;49.158;8.632;2023-09-30T08:05:59;101452.53;;;24.48;43.54
19150;BME280;9707;49.158;8.632;2023-09-30T08:08:25;101448.81;;;24.49;43.34
19150;BME280;9707;49.158;8.632;2023-09-30T08:10:50;101449.69;;;24.49;43.36
19150;BME280;9707;49.158;8.632;2023-09-30T08:13:20;101457.72;;;24.51;42.77
19150;BME280;9707;49.158;8.632;2023-09-30T08:15:45;101451.41;;;24.50;43.29
19150;BME280;9707;49.158;8.632;2023-09-30T08:18:11;101452.28;;;24.51;43.53
19150;BME280;9707;49.158;8.632;2023-09-30T08:20:36;101446.72;;;24.52;42.95
19150;BME280;9707;49.158;8.632;2023-09-30T08:23:02;101438.53;;;24.52;43.31
19150;BME280;9707;49.158;8.632;2023-09-30T08:25:28;101442.03;;;24.54;43.03
19150;BME280;9707;49.158;8.632;2023-09-30T08:27:53;101440.25;;;24.53;42.88
19150;BME280;9707;49.158;8.632;2023-09-30T08:30:19;101454.66;;;24.55;43.06
19150;BME280;9707;49.158;8.632;2023-09-30T08:32:45;101454.66;;;24.55;43.12
19150;BME280;9707;49.158;8.632;2023-09-30T08:35:12;101453.75;;;24.55;43.06
19150;BME280;9707;49.158;8.632;2023-09-30T08:37:39;101445.47;;;24.56;42.98
19150;BME280;9707;49.158;8.632;2023-09-30T08:40:05;101451.69;;;24.58;42.94
19150;BME280;9707;49.158;8.632;2023-09-30T08:42:32;101445.34;;;24.58;43.17
19150;BME280;9707;49.158;8.632;2023-09-30T08:44:59;101448.84;;;24.60;43.06
19150;BME280;9707;49.158;8.632;2023-09-30T08:47:28;101454.19;;;24.61;43.28
19150;BME280;9707;49.158;8.632;2023-09-30T08:49:54;101460.38;;;24.63;43.12
19150;BME280;9707;49.158;8.632;2023-09-30T08:52:23;101464.97;;;24.63;43.15
19150;BME280;9707;49.158;8.632;2023-09-30T08:54:48;101468.44;;;24.65;42.77
19150;BME280;9707;49.158;8.632;2023-09-30T08:57:15;101476.59;;;24.65;42.87
19150;BME280;9707;49.158;8.632;2023-09-30T08:59:44;101482.94;;;24.65;42.71
19150;BME280;9707;49.158;8.632;2023-09-30T09:02:11;101471.91;;;24.67;42.83
19150;BME280;9707;49.158;8.632;2023-09-30T09:04:37;101477.38;;;24.67;42.36
19150;BME280;9707;49.158;8.632;2023-09-30T09:07:02;101466.47;;;24.67;42.60
19150;BME280;9707;49.158;8.632;2023-09-30T09:09:28;101468.19;;;24.68;42.61
19150;BME280;9707;49.158;8.632;2023-09-30T09:11:53;101471.91;;;24.67;42.29
19150;BME280;9707;49.158;8.632;2023-09-30T09:14:18;101461.75;;;24.69;42.66
19150;BME280;9707;49.158;8.632;2023-09-30T09:16:51;101457.19;;;24.69;42.38
19150;BME280;9707;49.158;8.632;2023-09-30T09:19:18;101452.56;;;24.70;42.30
19150;BME280;9707;49.158;8.632;2023-09-30T09:21:59;101461.63;;;24.70;42.00
19150;BME280;9707;49.158;8.632;2023-09-30T09:24:29;101457.03;;;24.71;42.56
19150;BME280;9707;49.158;8.632;2023-09-30T09:27:13;101458.63;;;24.73;42.82
19150;BME280;9707;49.158;8.632;2023-09-30T09:29:42;101446.63;;;24.76;42.41
19150;BME280;9707;49.158;8.632;2023-09-30T09:32:11;101454.56;;;24.79;42.19
19150;BME280;9707;49.158;8.632;2023-09-30T09:34:40;101462.75;;;24.79;41.88
19150;BME280;9707;49.158;8.632;2023-09-30T09:37:13;101459.91;;;24.80;41.89
19150;BME280;9707;49.158;8.632;2023-09-30T09:39:40;101453.56;;;24.80;41.75
19150;BME280;9707;49.158;8.632;2023-09-30T09:42:05;101449.00;;;24.80;41.54
19150;BME280;9707;49.158;8.632;2023-09-30T09:44:32;101458.78;;;24.83;41.54
19150;BME280;9707;49.158;8.632;2023-09-30T09:47:02;101465.06;;;24.83;41.45
19150;BME280;9707;49.158;8.632;2023-09-30T09:49:31;101454.19;;;24.83;41.28
19150;BME280;9707;49.158;8.632;2023-09-30T09:51:58;101450.50;;;24.84;41.17
19150;BME280;9707;49.158;8.632;2023-09-30T09:54:24;101440.44;;;24.85;40.98
19150;BME280;9707;49.158;8.632;2023-09-30T09:56:49;101444.78;;;24.87;41.33
19150;BME280;9707;49.158;8.632;2023-09-30T09:59:18;101445.38;;;24.91;41.28
19150;BME280;9707;49.158;8.632;2023-09-30T10:01:45;101442.41;;;24.94;41.10
19150;BME280;9707;49.158;8.632;2023-09-30T10:04:13;101438.56;;;24.96;40.98
19150;BME280;9707;49.158;8.632;2023-09-30T10:06:44;101450.31;;;24.97;40.82
19150;BME280;9707;49.158;8.632;2023-09-30T10:09:11;101448.34;;;24.99;41.26
19150;BME280;9707;49.158;8.632;2023-09-30T10:11:38;101434.72;;;24.99;40.75
19150;BME280;9707;49.158;8.632;2023-09-30T10:14:05;101439.19;;;25.00;40.48
19150;BME280;9707;49.158;8.632;2023-09-30T10:19:21;101432.84;;;24.99;40.56
19150;BME280;9707;49.158;8.632;2023-09-30T10:24:44;101421.09;;;24.99;40.26
19150;BME280;9707;49.158;8.632;2023-09-30T10:29:48;101413.75;;;24.99;39.66
19150;BME280;9707;49.158;8.632;2023-09-30T10:32:15;101416.50;;;24.99;39.77
19150;BME280;9707;49.158;8.632;2023-09-30T10:34:47;101430.00;;;25.01;39.61
19150;BME280;9707;49.158;8.632;2023-09-30T10:37:23;101420.81;;;25.02;40.31
19150;BME280;9707;49.158;8.632;2023-09-30T10:42:47;101421.19;;;25.08;40.20
19150;BME280;9707;49.158;8.632;2023-09-30T10:51:01;101399.75;;;25.15;40.40
19150;BME280;9707;49.158;8.632;2023-09-30T10:53:27;101399.50;;;25.18;40.36
19150;BME280;9707;49.158;8.632;2023-09-30T10:56:02;101396.63;;;25.19;40.44
19150;BME280;9707;49.158;8.632;2023-09-30T10:58:40;101396.38;;;25.22;40.61
19150;BME280;9707;49.158;8.632;2023-09-30T11:01:05;101393.53;;;25.24;40.19
19150;BME280;9707;49.158;8.632;2023-09-30T11:03:31;101393.28;;;25.27;39.95
19150;BME280;9707;49.158;8.632;2023-09-30T11:05:56;101397.78;;;25.28;40.33
19150;BME280;9707;49.158;8.632;2023-09-30T11:08:22;101397.63;;;25.29;40.37
19150;BME280;9707;49.158;8.632;2023-09-30T11:10:52;101393.91;;;25.30;39.90
19150;BME280;9707;49.158;8.632;2023-09-30T11:13:18;101392.78;;;25.33;39.80
19150;BME280;9707;49.158;8.632;2023-09-30T11:15:44;101402.69;;;25.34;39.51
19150;BME280;9707;49.158;8.632;2023-09-30T11:18:17;101388.19;;;25.33;38.93
19150;BME280;9707;49.158;8.632;2023-09-30T11:20:43;101389.06;;;25.34;39.17
19150;BME280;9707;49.158;8.632;2023-09-30T11:23:10;101399.69;;;25.37;38.86
19150;BME280;9707;49.158;8.632;2023-09-30T11:25:37;101396.13;;;25.36;38.58
19150;BME280;9707;49.158;8.632;2023-09-30T11:28:13;101393.41;;;25.36;38.68
19150;BME280;9707;49.158;8.632;2023-09-30T11:30:57;101389.66;;;25.37;38.78
19150;BME280;9707;49.158;8.632;2023-09-30T11:33:22;101391.28;;;25.40;39.20
19150;BME280;9707;49.158;8.632;2023-09-30T11:36:06;101388.28;;;25.43;38.69
19150;BME280;9707;49.158;8.632;2023-09-30T11:38:34;101391.75;;;25.45;38.69
19150;BME280;9707;49.158;8.632;2023-09-30T11:41:05;101390.75;;;25.46;38.66
19150;BME280;9707;49.158;8.632;2023-09-30T11:43:32;101395.06;;;25.48;38.40
19150;BME280;9707;49.158;8.632;2023-09-30T11:46:06;101389.38;;;25.51;39.18
19150;BME280;9707;49.158;8.632;2023-09-30T11:48:33;101389.97;;;25.55;39.91
19150;BME280;9707;49.158;8.632;2023-09-30T11:50:59;101391.44;;;25.59;39.24
19150;BME280;9707;49.158;8.632;2023-09-30T11:53:28;101385.00;;;25.60;38.86
19150;BME280;9707;49.158;8.632;2023-09-30T11:55:55;101392.16;;;25.61;38.88
19150;BME280;9707;49.158;8.632;2023-09-30T11:58:21;101392.16;;;25.61;38.56
19150;BME280;9707;49.158;8.632;2023-09-30T12:00:47;101394.06;;;25.60;38.36
19150;BME280;9707;49.158;8.632;2023-09-30T12:03:16;101391.31;;;25.60;38.48
19150;BME280;9707;49.158;8.632;2023-09-30T12:05:41;101388.44;;;25.62;38.25
19150;BME280;9707;49.158;8.632;2023-09-30T12:08:07;101390.16;;;25.63;38.45
19150;BME280;9707;49.158;8.632;2023-09-30T12:10:32;101386.47;;;25.64;38.87
19150;BME280;9707;49.158;8.632;2023-09-30T12:12:58;101390.63;;;25.68;38.89
19150;BME280;9707;49.158;8.632;2023-09-30T12:15:23;101385.94;;;25.70;38.79
19150;BME280;9707;49.158;8.632;2023-09-30T12:17:48;101378.47;;;25.72;38.79
19150;BME280;9707;49.158;8.632;2023-09-30T12:20:14;101369.16;;;25.74;38.44
19150;BME280;9707;49.158;8.632;2023-09-30T12:22:41;101372.75;;;25.75;38.51
19150;BME280;9707;49.158;8.632;2023-09-30T12:25:07;101371.75;;;25.76;37.92
19150;BME280;9707;49.158;8.632;2023-09-30T12:27:34;101378.81;;;25.78;38.30
19150;BME280;9707;49.158;8.632;2023-09-30T12:29:59;101374.22;;;25.79;38.72
19150;BME280;9707;49.158;8.632;2023-09-30T12:32:25;101372.22;;;25.81;37.42
19150;BME280;9707;49.158;8.632;2023-09-30T12:34:52;101374.94;;;25.81;37.36
19150;BME280;9707;49.158;8.632;2023-09-30T12:37:18;101374.06;;;25.80;36.92
19150;BME280;9707;49.158;8.632;2023-09-30T12:39:43;101378.69;;;25.80;36.55
19150;BME280;9707;49.158;8.632;2023-09-30T12:42:10;101376.81;;;25.80;36.73
19150;BME280;9707;49.158;8.632;2023-09-30T12:44:37;101380.41;;;25.81;36.78
19150;BME280;9707;49.158;8.632;2023-09-30T12:47:04;101362.19;;;25.81;36.29
19150;BME280;9707;49.158;8.632;2023-09-30T12:49:30;101353.84;;;25.83;36.84
19150;BME280;9707;49.158;8.632;2023-09-30T12:51:55;101350.97;;;25.84;37.17
19150;BME280;9707;49.158;8.632;2023-09-30T12:54:22;101344.38;;;25.87;36.95
19150;BME280;9707;49.158;8.632;2023-09-30T12:56:48;101348.84;;;25.88;36.70
19150;BME280;9707;49.158;8.632;2023-09-30T12:59:15;101341.53;;;25.88;36.45
19150;BME280;9707;49.158;8.632;2023-09-30T13:01:41;101332.34;;;25.89;36.36
19150;BME280;9707;49.158;8.632;2023-09-30T13:04:06;101334.94;;;25.91;36.61
19150;BME280;9707;49.158;8.632;2023-09-30T13:06:33;101326.66;;;25.92;36.98
19150;BME280;9707;49.158;8.632;2023-09-30T13:09:03;101329.25;;;25.94;37.35
19150;BME280;9707;49.158;8.632;2023-09-30T13:11:30;101325.50;;;25.95;36.59
19150;BME280;9707;49.158;8.632;2023-09-30T13:13:55;101331.81;;;25.95;36.22